Flight Track Log - Related Links

Times and Time Zones

All times are in EST time to prevent confusion due to time zone crossing. See the FSR500 flight status page for this flight to view local times or setup timezone preferences in your user account.

Time Position Orientation Groundspeed Altitude Reporting Facility
EST Latitude Longitude Course Direction KTS km/h feet Rate Location/Type
Mon 08:51:48 39.8900 -88.1761 153° Southeast 266 492 6.600  Level Indianapolis Center
Mon 08:52:09 39.8772 -88.1611 138° Southeast 261 483 7.800 2.707 Climbing Chicago Center
Mon 08:53:10 39.8122 -88.1181 153° Southeast 280 518 10.300 2.606 Climbing Chicago Center
Mon 08:53:48 39.7478 -88.0803 156° South 306 566 12.100 2.755 Climbing Indianapolis Center
Mon 08:54:48 39.6581 -88.0206 153° Southeast 340 629 14.800 3.000 Climbing Indianapolis Center
Mon 08:55:00 39.5595 -87.9645 157° South  Level FlightAware Approximate
Mon 08:55:48 39.5606 -87.9581 154° Southeast 383 710 18.100  Level Indianapolis Center
Mon 08:56:00 39.4706 -87.8915 153° Southeast  Level FlightAware Approximate
Mon 08:56:48 39.4544 -87.8894 153° Southeast 418 774 20.900  Level Indianapolis Center
Mon 08:57:00 39.3765 -87.8286 153° Southeast  Level FlightAware Approximate
Mon 08:57:48 39.3528 -87.8189 152° Southeast 423 784 23.700  Level Indianapolis Center
Mon 08:58:48 39.2447 -87.7506 154° Southeast 423 784 26.500 2.500 Climbing Indianapolis Center
Mon 08:59:48 39.1367 -87.6800 153° Southeast 423 784 28.700 1.800 Climbing Indianapolis Center
Mon 09:00:48 39.0244 -87.6067 153° Southeast 434 803 30.100 1.550 Climbing Indianapolis Center
Mon 09:01:48 38.9122 -87.5364 154° Southeast 446 826 31.800 1.700 Climbing Indianapolis Center
Mon 09:02:48 38.7978 -87.4633 154° Southeast 451 835 33.500 1.650 Climbing Indianapolis Center
Mon 09:03:48 38.6875 -87.3911 153° Southeast 457 847 35.100 1.550 Climbing Indianapolis Center
Mon 09:04:48 38.5750 -87.3214 154° Southeast 457 847 36.600 1.450 Climbing Indianapolis Center
Mon 09:05:48 38.4667 -87.2547 154° Southeast 452 837 38.000 1.300 Climbing Indianapolis Center
Mon 09:06:48 38.3400 -87.1714 153° Southeast 452 837 39.200 1.000 Climbing Indianapolis Center
Mon 09:07:48 38.2333 -87.1053 154° Southeast 444 822 40.000 750 Climbing Indianapolis Center
Mon 09:08:48 38.1350 -87.0478 155° Southeast 439 813 40.700 500 Climbing Indianapolis Center
Mon 09:09:48 38.0286 -86.9794 153° Southeast 434 803 41.000 150 Climbing Indianapolis Center
Mon 09:10:48 37.9158 -86.9083 154° Southeast 440 814 41.000 -650 Level Indianapolis Center
Mon 09:11:48 37.8011 -86.8375 154° Southeast 450 834 39.700 -1.600 Descending Indianapolis Center
Mon 09:12:48 37.6883 -86.7694 154° Southeast 450 834 37.800 -1.911 Descending Indianapolis Center
Mon 09:14:25 37.4975 -86.6531 154° Southeast 454 840 34.700 -1.796 Descending Memphis Center
Mon 09:15:25 37.3850 -86.5853 154° Southeast 448 830 33.100 -850 Descending Memphis Center
Mon 09:16:25 37.2703 -86.5125 153° Southeast 454 840 33.000 -50 Descending Memphis Center
Mon 09:17:25 37.1511 -86.4375 153° Southeast 460 851 33.000 -300 Level Memphis Center
Mon 09:18:25 37.0450 -86.3778 156° South 465 861 32.400 -700 Descending Memphis Center
Mon 09:19:25 36.9303 -86.3056 153° Southeast 465 861 31.600 -700 Descending Memphis Center
Mon 09:20:25 36.8156 -86.2364 154° Southeast 465 861 31.000 -300 Descending Memphis Center
Mon 09:21:25 36.6964 -86.1647 154° Southeast 465 861 31.000  Level Memphis Center
Mon 09:22:25 36.5794 -86.0958 155° Southeast 465 861 31.000  Level Memphis Center
Mon 09:23:25 36.4475 -86.0178 155° Southeast 470 871 31.000  Level Memphis Center
Mon 09:24:25 36.3261 -85.9469 155° Southeast 470 871 31.000  Level Memphis Center
Mon 09:25:25 36.2069 -85.8764 154° Southeast 470 871 31.000  Level Memphis Center
Mon 09:26:25 36.0983 -85.8156 156° South 470 871 31.000  Level Memphis Center
Mon 09:27:25 35.9811 -85.7450 154° Southeast 470 871 31.000  Level Memphis Center
Mon 09:29:14 35.7667 -85.6203 155° Southeast 471 872 31.000  Level Atlanta Center
Mon 09:30:14 35.6506 -85.5517 154° Southeast 471 872 31.000  Level Atlanta Center
Mon 09:31:14 35.5344 -85.4833 154° Southeast 471 872 31.000 -550 Level Atlanta Center
Mon 09:32:14 35.4164 -85.4175 156° South 466 863 29.900 -1.300 Descending Atlanta Center
Mon 09:33:14 35.3025 -85.3519 155° Southeast 460 851 28.400 -1.500 Descending Atlanta Center
Mon 09:34:14 35.1883 -85.2867 155° Southeast 460 851 26.900 -1.450 Descending Atlanta Center
Mon 09:35:14 35.0761 -85.2214 155° Southeast 455 843 25.500 -1.550 Descending Atlanta Center
Mon 09:36:14 34.9683 -85.1617 156° South 450 834 23.800 -2.000 Descending Atlanta Center
Mon 09:37:14 34.8558 -85.1475 174° South 415 769 21.500 -2.300 Descending Atlanta Center
Mon 09:38:14 34.7431 -85.1458 179° South 410 760 19.200 -2.100 Descending Atlanta Center
Mon 09:39:14 34.6283 -85.1394 177° South 391 724 17.300 -1.950 Descending Atlanta Center
Mon 09:40:14 34.5242 -85.1153 169° South 383 710 15.300 -2.000 Descending Atlanta Center
Mon 09:41:14 34.4350 -85.0489 148° Southeast 370 686 13.300 -2.050 Descending Atlanta Center
Mon 09:42:14 34.3522 -84.9822 146° Southeast 358 663 11.200 -1.850 Descending Atlanta Center
Mon 09:43:14 34.2794 -84.9236 146° Southeast 330 612 9.600 -1.550 Descending Atlanta Center
Mon 09:44:14 34.2108 -84.8728 149° Southeast 298 552 8.100 -850 Descending Atlanta Center
Mon 09:45:14 34.1467 -84.8244 148° Southeast 283 525 7.900 -550 Descending Atlanta Center
Mon 09:46:14 34.1053 -84.7464 123° Southeast 269 499 7.000 -1.050 Descending Atlanta Center
Mon 09:47:14 34.0681 -84.6708 121° Southeast 269 499 5.800 -1.000 Descending Atlanta Center
Mon 09:48:14 34.0350 -84.6078 122° Southeast 257 476 5.000 -400 Descending Atlanta Center
Mon 09:49:14 33.9978 -84.5350 122° Southeast 257 476 5.000 -50 Level Atlanta Center
Mon 09:50:14 33.9606 -84.4619 122° Southeast 257 476 4.900 -850 Descending Atlanta Center
Mon 09:51:14 33.9211 -84.3892 123° Southeast 257 476 3.300 -1.294 Descending Atlanta Center
Mon 09:51:56 33.8833 -84.3500 139° Southeast 220 407 2.700 -824 Descending Atlanta TRACON
Mon 09:52:56 33.8500 -84.3333 157° South 161 298 1.900 -800 Descending Atlanta TRACON
Mon 09:54:00 33.8667 -84.3000 23° Northeast  Level FlightAware Approximate
Mon 10:01:00 33.8756 -84.3020 23° Northeast  Level Estimated

Login

Don't have an account? Register now (free) for customized features, flight alerts, and more!